createdAt,value
2023-03-20T00:02:08.384Z,4.50
2023-03-20T00:04:56.865Z,4.60
2023-03-20T00:07:45.293Z,5.15
2023-03-20T00:10:40.441Z,4.68
2023-03-20T00:13:31.002Z,4.43
2023-03-20T00:16:26.754Z,4.93
2023-03-20T00:19:26.369Z,4.13
2023-03-20T00:22:13.620Z,4.53
2023-03-20T00:25:00.999Z,4.22
2023-03-20T00:27:54.444Z,4.38
2023-03-20T00:30:44.289Z,3.85
2023-03-20T00:33:33.867Z,3.70
2023-03-20T00:36:25.234Z,3.17
2023-03-20T00:39:13.881Z,3.35
2023-03-20T00:42:06.754Z,3.10
2023-03-20T00:45:13.616Z,2.92
2023-03-20T00:48:04.897Z,2.88
2023-03-20T00:50:53.933Z,2.72
2023-03-20T00:53:43.832Z,2.30
2023-03-20T00:56:38.574Z,1.83
2023-03-20T00:59:35.443Z,1.90
2023-03-20T01:02:27.178Z,1.70
2023-03-20T01:05:18.359Z,1.70
2023-03-20T01:08:26.169Z,1.60
2023-03-20T01:11:13.782Z,1.83
2023-03-20T01:14:14.775Z,1.50
2023-03-20T01:17:05.187Z,1.40
2023-03-20T01:19:59.674Z,1.38
2023-03-20T01:22:53.221Z,1.20
2023-03-20T01:25:41.311Z,1.35
2023-03-20T01:28:32.389Z,1.15
2023-03-20T01:31:24.301Z,1.02
2023-03-20T01:37:18.506Z,1.02
2023-03-20T01:40:30.910Z,0.95
2023-03-20T01:43:23.349Z,1.10
2023-03-20T01:46:25.784Z,1.20
2023-03-20T01:49:29.706Z,1.15
2023-03-20T01:52:19.573Z,1.00
2023-03-20T01:55:07.224Z,0.80
2023-03-20T01:58:00.229Z,1.20
2023-03-20T02:00:51.296Z,1.00
2023-03-20T02:03:38.985Z,1.00
2023-03-20T02:06:29.365Z,0.90
2023-03-20T02:09:17.475Z,0.82
2023-03-20T02:12:09.041Z,0.85
2023-03-20T02:14:56.845Z,0.88
2023-03-20T02:17:49.031Z,0.80
2023-03-20T02:20:59.872Z,1.05
2023-03-20T02:24:05.248Z,0.93
2023-03-20T02:27:26.384Z,0.90
2023-03-20T02:30:39.144Z,1.10
2023-03-20T02:33:45.312Z,1.13
2023-03-20T02:37:05.903Z,1.30
2023-03-20T02:40:24.679Z,1.10
2023-03-20T02:43:24.622Z,0.98
2023-03-20T02:46:33.956Z,0.90
2023-03-20T02:50:06.966Z,0.80
2023-03-20T02:57:03.825Z,0.75
2023-03-20T03:00:27.497Z,1.02
2023-03-20T03:03:25.599Z,1.02
2023-03-20T03:07:33.631Z,1.10
2023-03-20T03:18:26.240Z,1.10
2023-03-20T03:25:29.720Z,1.02
2023-03-20T03:28:25.284Z,1.48
2023-03-20T03:31:44.768Z,1.70
2023-03-20T03:35:35.166Z,2.20
2023-03-20T03:38:38.075Z,1.63
2023-03-20T03:41:35.356Z,1.20
2023-03-20T03:48:27.049Z,1.35
2023-03-20T03:58:36.559Z,1.20
2023-03-20T04:02:24.765Z,1.40
2023-03-20T04:06:33.848Z,1.35
2023-03-20T04:09:24.714Z,1.33
2023-03-20T04:13:11.982Z,1.20
2023-03-20T04:16:10.129Z,1.40
2023-03-20T04:19:30.960Z,1.40
2023-03-20T04:22:43.202Z,1.50
2023-03-20T04:26:23.115Z,1.30
2023-03-20T04:29:43.535Z,1.52
2023-03-20T04:32:43.552Z,2.05
2023-03-20T04:36:22.612Z,1.67
2023-03-20T04:59:30.726Z,2.25
2023-03-20T05:05:32.922Z,2.20
2023-03-20T05:11:22.285Z,2.30
2023-03-20T05:14:39.006Z,2.40
2023-03-20T05:17:29.491Z,2.40
2023-03-20T05:20:21.703Z,2.45
2023-03-20T05:23:24.326Z,2.40
2023-03-20T05:26:17.220Z,2.20
2023-03-20T05:32:23.113Z,2.20
2023-03-20T05:35:11.215Z,2.60
2023-03-20T05:38:01.320Z,2.42
2023-03-20T05:40:50.399Z,2.47
2023-03-20T05:43:37.857Z,2.25
2023-03-20T05:46:27.371Z,2.30
2023-03-20T05:49:14.628Z,2.50
2023-03-20T05:52:03.981Z,2.55
2023-03-20T05:54:53.391Z,2.33
2023-03-20T05:57:41.053Z,2.63
2023-03-20T06:00:28.606Z,2.30
2023-03-20T06:03:15.899Z,2.63
2023-03-20T06:06:04.825Z,2.55
2023-03-20T06:08:54.770Z,2.50
2023-03-20T06:11:42.004Z,2.25
2023-03-20T06:14:29.396Z,2.70
2023-03-20T06:17:18.753Z,2.53
2023-03-20T06:20:06.570Z,2.55
2023-03-20T06:22:53.777Z,3.05
2023-03-20T06:25:42.809Z,2.67
2023-03-20T06:28:30.189Z,2.50
2023-03-20T06:31:20.100Z,2.90
2023-03-20T06:34:08.396Z,2.80
2023-03-20T06:37:04.335Z,2.50
2023-03-20T06:39:51.710Z,2.50
2023-03-20T06:56:18.287Z,2.30
2023-03-20T15:29:37.422Z,1.90
2023-03-20T15:32:28.910Z,1.70
2023-03-20T15:35:23.868Z,1.48
2023-03-20T15:38:15.470Z,1.60
2023-03-20T15:41:35.887Z,1.70
2023-03-20T15:44:28.330Z,1.70
2023-03-20T15:47:21.000Z,1.88
2023-03-20T15:53:00.664Z,1.50
2023-03-20T15:56:17.348Z,1.90
2023-03-20T15:59:06.446Z,1.95
2023-03-20T16:02:02.965Z,2.25
2023-03-20T16:04:54.321Z,2.20
2023-03-20T16:07:44.741Z,2.05
2023-03-20T16:10:38.132Z,2.05
2023-03-20T16:13:29.037Z,2.00
2023-03-20T16:16:34.517Z,2.30
2023-03-20T16:19:22.295Z,2.40
2023-03-20T16:22:47.322Z,1.77
2023-03-20T16:25:37.787Z,3.00
2023-03-20T16:28:31.108Z,2.53
2023-03-20T16:31:31.843Z,2.13
2023-03-20T16:34:24.253Z,2.63
2023-03-20T16:37:28.648Z,3.17
2023-03-20T16:40:18.875Z,3.08
2023-03-20T16:43:24.712Z,2.55
2023-03-20T16:46:20.377Z,2.10
2023-03-20T16:49:29.814Z,2.83
2023-03-20T16:52:24.297Z,3.80
2023-03-20T16:55:18.459Z,2.80
2023-03-20T16:58:07.451Z,3.25
2023-03-20T17:01:01.237Z,3.08
2023-03-20T17:03:55.919Z,2.95
2023-03-20T17:06:53.352Z,2.90
2023-03-20T17:10:01.118Z,3.47
2023-03-20T17:12:52.838Z,2.90
2023-03-20T17:15:40.169Z,4.40
2023-03-20T17:18:31.126Z,4.88
2023-03-20T17:21:18.515Z,3.90
2023-03-20T17:24:06.051Z,4.13
2023-03-20T17:26:56.123Z,3.55
2023-03-20T17:29:43.275Z,3.50
2023-03-20T17:32:30.488Z,4.32
2023-03-20T17:35:20.553Z,3.97
2023-03-20T17:38:26.303Z,4.80
2023-03-20T17:41:18.692Z,5.40
2023-03-20T17:44:07.845Z,6.75
2023-03-20T17:46:58.795Z,4.40
2023-03-20T17:49:50.972Z,3.65
2023-03-20T17:52:38.170Z,3.73
2023-03-20T17:55:25.350Z,2.90
2023-03-20T17:58:22.416Z,2.78
2023-03-20T18:01:10.741Z,2.70
2023-03-20T18:04:00.220Z,3.00
2023-03-20T18:07:09.481Z,3.53
2023-03-20T18:09:56.961Z,3.22
2023-03-20T18:12:44.205Z,3.80
2023-03-20T18:15:32.306Z,3.65
2023-03-20T18:18:24.001Z,3.25
2023-03-20T18:21:12.186Z,3.60
2023-03-20T18:23:59.470Z,3.10
2023-03-20T18:26:47.340Z,4.18
2023-03-20T18:29:36.879Z,3.83
2023-03-20T18:32:24.336Z,4.10
2023-03-20T18:35:14.318Z,3.88
2023-03-20T18:38:02.212Z,4.07
2023-03-20T18:40:49.794Z,4.10
2023-03-20T18:43:37.728Z,3.22
2023-03-20T18:46:26.399Z,4.40
2023-03-20T18:49:19.541Z,3.33
2023-03-20T18:52:07.190Z,3.78
2023-03-20T18:54:55.124Z,4.25
2023-03-20T18:57:43.902Z,4.32
2023-03-20T19:00:43.093Z,4.20
2023-03-20T19:03:39.341Z,4.55
2023-03-20T19:06:29.985Z,4.53
2023-03-20T19:09:18.458Z,4.60
2023-03-20T19:12:09.284Z,4.57
2023-03-20T19:14:56.756Z,4.10
2023-03-20T19:17:43.977Z,4.18
2023-03-20T19:20:48.337Z,3.85
2023-03-20T19:23:53.672Z,4.70
2023-03-20T19:26:41.014Z,4.72
2023-03-20T19:29:33.962Z,4.65
2023-03-20T19:32:21.208Z,4.72
2023-03-20T19:38:52.508Z,4.75
2023-03-20T19:41:53.296Z,4.75
2023-03-20T19:47:50.046Z,4.40
2023-03-20T19:50:41.352Z,5.15
2023-03-20T19:53:35.388Z,5.43
2023-03-20T19:56:28.285Z,4.70
2023-03-20T19:59:18.246Z,5.85
2023-03-20T20:02:10.205Z,4.90
2023-03-20T20:05:03.206Z,5.10
2023-03-20T20:11:00.451Z,4.72
2023-03-20T20:14:07.210Z,4.95
2023-03-20T20:17:07.485Z,5.35
2023-03-20T20:19:55.302Z,5.85
2023-03-20T20:22:43.133Z,5.95
2023-03-20T20:25:35.522Z,4.88
2023-03-20T20:28:30.849Z,5.22
2023-03-20T20:31:43.507Z,4.55
2023-03-20T20:40:52.605Z,5.63
2023-03-20T20:44:14.114Z,6.40
2023-03-20T20:46:47.025Z,5.75
2023-03-20T20:49:34.573Z,5.55
2023-03-20T20:52:23.556Z,4.80
2023-03-20T20:55:24.969Z,9.93
2023-03-20T20:58:12.530Z,7.40
2023-03-20T21:01:06.842Z,9.07
2023-03-20T21:04:10.007Z,6.05
2023-03-20T21:07:08.854Z,5.03
2023-03-20T21:09:57.652Z,3.95
2023-03-20T21:12:58.607Z,4.30
2023-03-20T21:15:47.271Z,5.47
2023-03-20T21:18:35.297Z,5.47
2023-03-20T21:21:23.000Z,4.57
2023-03-20T21:24:30.864Z,4.22
2023-03-20T21:27:21.786Z,4.35
2023-03-20T21:30:09.774Z,4.32
2023-03-20T21:32:58.161Z,4.32
2023-03-20T21:35:52.283Z,3.83
2023-03-20T21:41:49.818Z,3.92
2023-03-20T21:51:39.762Z,3.53
2023-03-20T21:58:04.136Z,3.40
2023-03-20T22:01:12.160Z,3.72
2023-03-20T22:03:54.954Z,3.78
2023-03-20T22:07:24.070Z,3.70
2023-03-20T22:13:37.204Z,4.65
2023-03-20T22:16:49.083Z,4.45
2023-03-20T22:23:09.439Z,4.60
2023-03-20T22:29:14.996Z,4.40
2023-03-20T22:35:22.893Z,4.10
2023-03-20T22:38:41.345Z,4.03
2023-03-20T22:47:15.630Z,4.20
2023-03-20T22:50:03.183Z,3.97
2023-03-20T22:52:53.857Z,3.75
2023-03-20T22:55:45.104Z,4.35
2023-03-20T22:58:32.551Z,3.85
2023-03-20T23:01:19.918Z,4.20
2023-03-20T23:04:11.858Z,4.85
2023-03-20T23:06:59.166Z,4.72
2023-03-20T23:09:51.292Z,3.90
2023-03-20T23:12:38.578Z,4.38
2023-03-20T23:15:26.675Z,4.05
2023-03-20T23:18:14.459Z,3.97
2023-03-20T23:21:02.588Z,3.97
2023-03-20T23:23:49.848Z,4.57
2023-03-20T23:26:39.197Z,4.22
2023-03-20T23:29:26.428Z,4.82
2023-03-20T23:32:13.747Z,4.50
2023-03-20T23:35:03.220Z,4.07
2023-03-20T23:37:50.395Z,4.43
2023-03-20T23:40:37.879Z,4.32
2023-03-20T23:43:25.451Z,4.13
2023-03-20T23:46:15.567Z,3.83
2023-03-20T23:49:06.377Z,4.53
2023-03-20T23:51:53.557Z,3.90
2023-03-20T23:54:45.718Z,4.25
2023-03-20T23:57:32.881Z,3.88
